Time;durP1;ratioP1;P1;durP2;ratioP2;P2;SDS_P1;SDS_P2;PMS_P1;PMS_P2;Temp;Humidity;BMP_temperature;BMP_pressure;BME280_temperature;BME280_humidity;BME280_pressure;Samples;Min_cycle;Max_cycle;Signal;HPM_P1;HPM_P2
2021/09/29 00:00:06;;;;;;;3.83;0.60;;;16.40;73.60;;;;;;5055128;28;20039;-76
2021/09/29 00:02:32;;;;;;;3.63;0.50;;;16.40;73.80;;;;;;5073571;28;20024;-76
2021/09/29 00:04:58;;;;;;;1.45;0.50;;;16.40;73.70;;;;;;5072797;28;20028;-76
2021/09/29 00:07:23;;;;;;;5.03;0.60;;;16.50;73.60;;;;;;5072675;28;20546;-76
2021/09/29 00:09:49;;;;;;;3.40;0.70;;;16.50;73.40;;;;;;5072464;28;20033;-76
2021/09/29 00:12:14;;;;;;;3.28;0.60;;;16.50;73.30;;;;;;5072633;28;20036;-76
2021/09/29 00:14:40;;;;;;;4.00;0.60;;;16.50;73.60;;;;;;5073486;28;20035;-76
2021/09/29 00:17:06;;;;;;;3.03;0.60;;;16.40;73.70;;;;;;5072912;28;20554;-75
2021/09/29 00:19:32;;;;;;;2.15;0.47;;;16.40;73.70;;;;;;5072623;28;20624;-76
2021/09/29 00:21:57;;;;;;;4.45;0.75;;;16.40;73.40;;;;;;5071609;28;20115;-76
2021/09/29 00:24:23;;;;;;;4.18;0.80;;;16.40;73.90;;;;;;5072389;28;20032;-76
2021/09/29 00:26:48;;;;;;;2.25;0.40;;;16.40;74.10;;;;;;5072322;28;20449;-76
2021/09/29 00:29:14;;;;;;;2.80;0.65;;;16.40;74.00;;;;;;5072985;28;20031;-76
2021/09/29 00:31:40;;;;;;;3.65;0.50;;;16.40;74.00;;;;;;5072162;28;20081;-76
2021/09/29 00:34:08;;;;;;;4.85;0.65;;;16.40;74.10;;;;;;5071819;28;20367;-76
2021/09/29 00:36:39;;;;;;;3.22;0.80;;;16.40;74.00;;;;;;5072292;28;20024;-76
2021/09/29 00:39:06;;;;;;;3.72;0.47;;;16.30;74.10;;;;;;5072041;28;20119;-75
2021/09/29 00:41:32;;;;;;;3.45;0.60;;;16.30;74.20;;;;;;5059238;28;20074;-76
2021/09/29 00:43:58;;;;;;;6.05;0.60;;;16.30;74.30;;;;;;5072062;28;20033;-75
2021/09/29 00:46:24;;;;;;;3.60;0.50;;;16.30;74.70;;;;;;5071889;28;20028;-76
2021/09/29 00:48:50;;;;;;;5.45;0.90;;;16.20;74.30;;;;;;5071942;28;20029;-77
2021/09/29 00:51:16;;;;;;;3.70;0.43;;;16.20;75.70;;;;;;5071604;28;20813;-77
2021/09/29 00:53:42;;;;;;;5.50;0.77;;;16.20;75.20;;;;;;5058012;28;20026;-77
2021/09/29 00:56:09;;;;;;;2.55;0.60;;;16.10;74.90;;;;;;5071868;28;20079;-77
2021/09/29 00:58:34;;;;;;;2.30;0.63;;;16.10;75.40;;;;;;5071761;28;20044;-76
2021/09/29 01:01:00;;;;;;;5.03;0.75;;;16.10;75.20;;;;;;5071932;28;20024;-77
2021/09/29 01:03:27;;;;;;;2.90;0.55;;;16.10;75.30;;;;;;5071763;28;20033;-76
2021/09/29 01:05:56;;;;;;;4.38;0.80;;;16.10;75.90;;;;;;5071692;28;20021;-76
2021/09/29 01:08:32;;;;;;;3.90;0.82;;;16.10;75.40;;;;;;5070266;28;20070;-77
2021/09/29 01:11:06;;;;;;;4.15;0.60;;;16.00;75.50;;;;;;5071634;28;20028;-77
2021/09/29 01:13:51;;;;;;;4.53;0.57;;;16.10;75.50;;;;;;5057941;28;20470;-77
2021/09/29 01:16:18;;;;;;;4.03;0.60;;;16.10;75.60;;;;;;5071635;28;20036;-77
2021/09/29 01:18:50;;;;;;;4.78;0.70;;;16.10;75.80;;;;;;5071498;28;20097;-77
2021/09/29 01:21:18;;;;;;;7.63;0.80;;;16.10;75.50;;;;;;5056048;28;20033;-77
2021/09/29 01:23:50;;;;;;;2.47;0.45;;;16.00;75.60;;;;;;5071815;28;20108;-77
2021/09/29 01:26:21;;;;;;;1.88;0.45;;;16.00;75.90;;;;;;5071167;28;20028;-78
2021/09/29 01:29:06;;;;;;;4.35;0.57;;;15.90;75.80;;;;;;5071336;28;20467;-78
2021/09/29 01:31:33;;;;;;;3.80;0.50;;;15.90;75.80;;;;;;5071586;28;20032;-78
2021/09/29 01:33:59;;;;;;;3.15;0.70;;;16.00;76.10;;;;;;5070965;28;20020;-77
2021/09/29 01:36:25;;;;;;;6.03;0.95;;;16.00;76.70;;;;;;5071031;28;20154;-76
2021/09/29 01:38:55;;;;;;;5.55;0.73;;;16.00;76.60;;;;;;5063999;28;20106;-76
2021/09/29 01:41:31;;;;;;;3.90;0.80;;;16.00;76.90;;;;;;5074993;28;20039;-77
2021/09/29 01:43:58;;;;;;;3.70;0.50;;;16.00;76.30;;;;;;5073219;28;20401;-77
2021/09/29 01:46:26;;;;;;;5.50;0.70;;;16.00;76.60;;;;;;5071203;28;20035;-76
2021/09/29 01:49:19;;;;;;;4.55;0.70;;;16.00;76.60;;;;;;5071394;28;20039;-77
2021/09/29 01:51:49;;;;;;;4.53;0.57;;;16.10;76.30;;;;;;5071430;28;20025;-76
2021/09/29 01:54:17;;;;;;;2.80;0.75;;;16.10;76.80;;;;;;5071173;28;20104;-77
2021/09/29 01:56:44;;;;;;;5.55;0.68;;;16.10;76.80;;;;;;5071465;28;20106;-76
2021/09/29 01:59:10;;;;;;;3.83;0.70;;;16.10;77.40;;;;;;5071045;28;20039;-77
2021/09/29 02:01:37;;;;;;;3.42;0.75;;;16.10;77.30;;;;;;5071283;28;20029;-77
2021/09/29 02:04:04;;;;;;;2.35;0.60;;;16.10;76.60;;;;;;5070613;28;20051;-77
2021/09/29 02:06:30;;;;;;;3.35;0.50;;;16.00;76.50;;;;;;5071248;28;20115;-76
2021/09/29 02:08:56;;;;;;;1.95;0.68;;;15.90;76.40;;;;;;5071153;28;20070;-76
2021/09/29 02:11:22;;;;;;;3.83;0.60;;;15.90;76.60;;;;;;5071527;28;20029;-77
2021/09/29 02:13:47;;;;;;;3.50;0.60;;;15.80;76.90;;;;;;5070977;28;20025;-77
2021/09/29 02:16:13;;;;;;;2.65;0.55;;;15.80;77.00;;;;;;5070969;28;20021;-76
2021/09/29 02:18:39;;;;;;;2.60;0.70;;;15.70;77.00;;;;;;5070446;28;20102;-77
2021/09/29 02:21:04;;;;;;;2.20;0.43;;;15.60;77.00;;;;;;5071137;28;20059;-76
2021/09/29 02:23:30;;;;;;;1.50;0.50;;;15.60;76.90;;;;;;5057899;28;20033;-77
2021/09/29 02:25:56;;;;;;;3.78;0.50;;;15.50;76.90;;;;;;5070696;28;20488;-76
2021/09/29 02:28:21;;;;;;;5.00;0.68;;;15.50;77.00;;;;;;5070979;28;20108;-75
2021/09/29 02:30:47;;;;;;;2.58;0.30;;;15.50;76.80;;;;;;5070863;28;20051;-77
2021/09/29 02:33:13;;;;;;;2.25;0.52;;;15.50;77.00;;;;;;5070556;28;20077;-77
2021/09/29 02:35:38;;;;;;;1.75;0.28;;;15.40;76.80;;;;;;5071570;28;20028;-77
2021/09/29 02:38:04;;;;;;;1.75;0.40;;;15.40;76.60;;;;;;5070685;28;20079;-77
2021/09/29 02:40:30;;;;;;;1.23;0.30;;;15.40;76.70;;;;;;5070759;28;20029;-77
2021/09/29 02:42:56;;;;;;;2.10;0.50;;;15.30;76.30;;;;;;5070752;28;20039;-77
2021/09/29 02:45:21;;;;;;;1.48;0.22;;;15.30;76.50;;;;;;5071557;28;20020;-76
2021/09/29 02:47:47;;;;;;;2.13;0.20;;;15.20;76.20;;;;;;5074322;28;20035;-76
2021/09/29 02:50:13;;;;;;;0.40;0.17;;;15.20;76.40;;;;;;5074791;28;20138;-76
2021/09/29 02:52:38;;;;;;;1.85;0.30;;;15.20;76.30;;;;;;5074203;28;20501;-77
2021/09/29 02:55:05;;;;;;;2.28;0.30;;;15.10;76.20;;;;;;5074199;28;20100;-77
2021/09/29 02:57:30;;;;;;;0.82;0.20;;;15.10;76.20;;;;;;5074079;28;20041;-77
2021/09/29 02:59:56;;;;;;;1.58;0.22;;;15.10;76.10;;;;;;5074065;28;20082;-76
2021/09/29 03:02:21;;;;;;;0.98;0.10;;;15.10;76.10;;;;;;5074460;28;20101;-77
2021/09/29 03:04:47;;;;;;;1.33;0.40;;;15.10;75.90;;;;;;5073959;28;20124;-77
2021/09/29 03:07:13;;;;;;;1.48;0.20;;;15.10;75.90;;;;;;5074025;28;20115;-74
2021/09/29 03:09:38;;;;;;;0.68;0.20;;;15.00;76.00;;;;;;5074229;28;20111;-78
2021/09/29 03:12:05;;;;;;;1.02;0.20;;;14.90;75.80;;;;;;5073911;28;20390;-77
2021/09/29 03:14:31;;;;;;;1.65;0.20;;;14.90;75.90;;;;;;5074209;28;20020;-77
2021/09/29 03:16:56;;;;;;;0.95;0.10;;;14.90;76.00;;;;;;5073232;28;20035;-77
2021/09/29 03:19:22;;;;;;;1.80;0.20;;;14.80;76.00;;;;;;5073745;28;20040;-77
2021/09/29 03:21:47;;;;;;;1.50;0.20;;;14.80;76.30;;;;;;5056393;28;20021;-74
2021/09/29 03:24:18;;;;;;;1.55;0.40;;;14.70;76.20;;;;;;5074843;28;20062;-76
2021/09/29 03:26:47;;;;;;;0.60;0.20;;;14.70;76.10;;;;;;5088311;28;20020;-77
2021/09/29 03:29:13;;;;;;;1.08;0.30;;;14.60;76.20;;;;;;5060370;28;20021;-76
2021/09/29 03:31:38;;;;;;;2.17;0.30;;;14.60;76.30;;;;;;5073322;28;20086;-75
2021/09/29 03:34:04;;;;;;;1.02;0.30;;;14.60;76.50;;;;;;5073458;28;20029;-77
2021/09/29 03:36:29;;;;;;;1.70;0.25;;;14.50;77.50;;;;;;5055439;28;20036;-77
2021/09/29 03:38:55;;;;;;;1.48;0.32;;;14.50;76.50;;;;;;5073440;28;20080;-77
2021/09/29 03:41:21;;;;;;;0.90;0.20;;;14.50;76.60;;;;;;5073794;28;20082;-75
2021/09/29 03:43:46;;;;;;;0.57;0.28;;;14.40;76.60;;;;;;5073243;28;20035;-76
2021/09/29 03:46:12;;;;;;;2.03;0.30;;;14.50;76.50;;;;;;5072921;28;20029;-75
2021/09/29 03:48:38;;;;;;;0.95;0.20;;;14.40;76.70;;;;;;5073330;28;20019;-75
2021/09/29 03:51:03;;;;;;;1.45;0.43;;;14.40;76.60;;;;;;5073153;28;20025;-76
2021/09/29 03:53:29;;;;;;;1.15;0.40;;;14.40;76.80;;;;;;5073664;28;20020;-76
2021/09/29 03:55:55;;;;;;;1.67;0.38;;;14.40;76.80;;;;;;5072782;28;20031;-76
2021/09/29 03:58:20;;;;;;;0.95;0.30;;;14.40;77.00;;;;;;5073023;28;20036;-76
2021/09/29 04:00:46;;;;;;;0.88;0.20;;;14.30;76.80;;;;;;5072489;28;20016;-76
2021/09/29 04:03:12;;;;;;;0.55;0.20;;;14.40;77.00;;;;;;5072143;28;20052;-77
2021/09/29 04:05:38;;;;;;;0.15;0.10;;;14.40;76.90;;;;;;5073423;28;20047;-76
2021/09/29 04:08:05;;;;;;;1.15;0.15;;;14.40;76.80;;;;;;5070754;28;20025;-77
2021/09/29 04:10:31;;;;;;;0.22;0.10;;;14.40;76.80;;;;;;5072424;28;20036;-77
2021/09/29 04:12:57;;;;;;;1.92;0.32;;;14.40;76.90;;;;;;5072015;28;20503;-78
2021/09/29 04:15:23;;;;;;;1.00;0.30;;;14.30;77.10;;;;;;5071610;28;20033;-78
2021/09/29 04:17:49;;;;;;;0.30;0.17;;;14.40;77.30;;;;;;5072345;28;20031;-77
2021/09/29 04:20:14;;;;;;;1.73;0.40;;;14.30;77.30;;;;;;5072251;28;20115;-78
2021/09/29 04:22:40;;;;;;;2.72;0.30;;;14.30;77.40;;;;;;5071882;28;20037;-77
2021/09/29 04:25:06;;;;;;;1.85;0.20;;;14.30;77.30;;;;;;5058576;28;20017;-77
2021/09/29 04:27:33;;;;;;;1.40;0.20;;;14.20;77.50;;;;;;5072509;28;20013;-77
2021/09/29 04:29:59;;;;;;;1.10;0.30;;;14.20;77.60;;;;;;5055136;28;20115;-77
2021/09/29 04:32:24;;;;;;;2.72;0.47;;;14.20;77.60;;;;;;5072309;28;20108;-77
2021/09/29 04:34:50;;;;;;;1.60;0.20;;;14.10;77.70;;;;;;5071238;28;20032;-77
2021/09/29 04:37:16;;;;;;;1.33;0.20;;;14.10;77.60;;;;;;5071267;28;20546;-77
2021/09/29 04:39:41;;;;;;;0.70;0.17;;;14.10;77.30;;;;;;5072034;28;20028;-76
2021/09/29 04:42:07;;;;;;;0.88;0.25;;;14.10;77.30;;;;;;5071503;28;20020;-76
2021/09/29 04:44:33;;;;;;;0.47;0.10;;;14.00;77.40;;;;;;5058708;28;20051;-76
2021/09/29 04:46:58;;;;;;;1.33;0.20;;;14.00;77.50;;;;;;5071508;28;20024;-76
2021/09/29 04:49:24;;;;;;;2.67;0.20;;;14.00;77.60;;;;;;5071744;28;20077;-76
2021/09/29 04:51:50;;;;;;;1.65;0.35;;;13.90;77.40;;;;;;5076699;28;20404;-77
2021/09/29 04:54:16;;;;;;;1.55;0.30;;;13.90;77.40;;;;;;5071693;28;20020;-77
2021/09/29 04:56:43;;;;;;;1.33;0.30;;;13.90;77.80;;;;;;5071871;28;20024;-77
2021/09/29 04:59:10;;;;;;;1.80;0.32;;;13.90;77.70;;;;;;5071078;28;20115;-77
2021/09/29 05:01:36;;;;;;;1.45;0.20;;;13.90;77.70;;;;;;5058027;28;20028;-77
2021/09/29 05:04:02;;;;;;;1.05;0.38;;;13.90;77.80;;;;;;5056869;28;20492;-76
2021/09/29 05:06:29;;;;;;;0.93;0.20;;;13.80;77.40;;;;;;5071442;28;20035;-76
2021/09/29 05:08:54;;;;;;;1.75;0.30;;;13.80;77.40;;;;;;5071110;28;20029;-77
2021/09/29 05:11:29;;;;;;;1.35;0.45;;;13.80;77.60;;;;;;5070138;28;20033;-78
2021/09/29 05:13:56;;;;;;;0.90;0.30;;;13.80;77.50;;;;;;5071164;28;20035;-77
2021/09/29 05:16:21;;;;;;;1.52;0.30;;;13.80;77.50;;;;;;5070837;28;20089;-77
2021/09/29 05:18:47;;;;;;;1.50;0.50;;;13.70;77.80;;;;;;5070773;28;20032;-78
2021/09/29 05:21:13;;;;;;;1.80;0.50;;;13.70;77.80;;;;;;5070990;28;20035;-78
2021/09/29 05:23:40;;;;;;;2.00;0.30;;;13.70;77.80;;;;;;5071626;28;20366;-76
2021/09/29 05:26:06;;;;;;;1.85;0.38;;;13.70;78.00;;;;;;5071032;28;20063;-76
2021/09/29 05:28:35;;;;;;;0.93;0.30;;;13.70;78.10;;;;;;5070968;28;20055;-77
2021/09/29 05:31:01;;;;;;;1.00;0.40;;;13.70;77.90;;;;;;5071197;28;20021;-78
2021/09/29 05:33:27;;;;;;;1.88;0.43;;;13.70;77.80;;;;;;5071211;28;20033;-77
2021/09/29 05:35:52;;;;;;;1.27;0.30;;;13.70;78.00;;;;;;5070391;28;20525;-77
2021/09/29 05:38:18;;;;;;;1.05;0.25;;;13.60;77.90;;;;;;5070979;28;20374;-76
2021/09/29 05:40:44;;;;;;;0.57;0.10;;;13.60;78.10;;;;;;5070933;28;20386;-76
2021/09/29 05:43:09;;;;;;;1.05;0.20;;;13.60;78.00;;;;;;5070433;28;20029;-75
2021/09/29 05:45:35;;;;;;;1.73;0.30;;;13.70;78.30;;;;;;5070533;28;20446;-75
2021/09/29 05:48:01;;;;;;;1.02;0.30;;;13.60;77.90;;;;;;5070663;28;20037;-76
2021/09/29 05:50:27;;;;;;;0.70;0.20;;;13.60;78.10;;;;;;5071326;28;20050;-77
2021/09/29 05:52:52;;;;;;;1.40;0.38;;;13.60;78.20;;;;;;5070363;28;20233;-77
2021/09/29 05:55:18;;;;;;;3.45;0.50;;;13.60;78.20;;;;;;5071049;28;20078;-76
2021/09/29 05:57:44;;;;;;;2.92;0.40;;;13.60;78.20;;;;;;5070407;28;20029;-76
2021/09/29 06:00:10;;;;;;;1.15;0.40;;;13.50;78.00;;;;;;5078187;28;20028;-77
2021/09/29 06:02:36;;;;;;;2.63;0.43;;;13.50;78.10;;;;;;5078414;28;20679;-77
2021/09/29 06:05:02;;;;;;;2.42;0.40;;;13.50;78.10;;;;;;5070407;28;20123;-76
2021/09/29 06:07:27;;;;;;;2.92;0.40;;;13.50;78.10;;;;;;5070530;28;20025;-77
2021/09/29 06:09:53;;;;;;;1.23;0.40;;;13.50;78.10;;;;;;5054169;28;20028;-77
2021/09/29 06:12:18;;;;;;;2.53;0.32;;;13.50;78.10;;;;;;5069947;28;20058;-76
2021/09/29 06:14:50;;;;;;;2.45;0.40;;;13.50;78.00;;;;;;5069152;28;20024;-76
2021/09/29 06:17:24;;;;;;;2.42;0.60;;;13.50;78.20;;;;;;5048339;28;20039;-77
2021/09/29 06:19:54;;;;;;;4.95;0.57;;;13.50;78.10;;;;;;5070283;28;20048;-78
2021/09/29 06:22:22;;;;;;;2.03;0.60;;;13.60;78.40;;;;;;5066986;28;20029;-77
2021/09/29 06:24:47;;;;;;;1.27;0.50;;;13.70;78.40;;;;;;5072064;28;20477;-77
2021/09/29 06:27:13;;;;;;;1.52;0.60;;;13.80;79.10;;;;;;5073572;28;20039;-78
2021/09/29 06:29:39;;;;;;;1.83;0.50;;;13.90;78.20;;;;;;5073924;28;20028;-78
2021/09/29 06:32:05;;;;;;;1.23;0.43;;;14.00;78.10;;;;;;5073680;28;20027;-77
2021/09/29 06:34:31;;;;;;;4.00;0.77;;;14.10;77.90;;;;;;5073766;28;20527;-76
2021/09/29 06:36:57;;;;;;;1.13;0.40;;;14.20;77.90;;;;;;5074764;28;20025;-76
2021/09/29 06:39:23;;;;;;;1.95;0.60;;;14.40;77.40;;;;;;5072997;28;20420;-76
2021/09/29 06:41:49;;;;;;;2.05;0.38;;;14.50;77.30;;;;;;5073526;28;20020;-76
2021/09/29 06:44:15;;;;;;;1.27;0.40;;;14.60;76.90;;;;;;5074037;28;20033;-76
2021/09/29 06:46:41;;;;;;;2.80;0.50;;;14.70;76.60;;;;;;5073617;28;20044;-77
2021/09/29 06:49:06;;;;;;;1.70;0.40;;;14.80;76.10;;;;;;5073779;28;20515;-77
2021/09/29 06:51:32;;;;;;;1.90;0.40;;;15.00;76.10;;;;;;5073728;28;20076;-78
2021/09/29 06:53:58;;;;;;;3.30;0.68;;;15.10;75.30;;;;;;5072910;28;20032;-78
2021/09/29 06:56:24;;;;;;;2.60;0.50;;;15.20;75.20;;;;;;5075154;28;20031;-76
2021/09/29 06:58:52;;;;;;;4.65;0.60;;;15.30;74.70;;;;;;5074122;28;20079;-77
2021/09/29 07:01:18;;;;;;;3.92;0.55;;;15.50;74.90;;;;;;5074252;28;20046;-77
2021/09/29 07:03:44;;;;;;;1.88;0.40;;;15.70;74.00;;;;;;5074262;28;20032;-76
2021/09/29 07:06:10;;;;;;;2.15;0.40;;;15.80;73.20;;;;;;5073935;28;20031;-77
2021/09/29 07:08:36;;;;;;;2.38;0.40;;;16.00;73.20;;;;;;5070125;28;20056;-77
2021/09/29 07:11:02;;;;;;;2.88;0.40;;;16.10;72.80;;;;;;5074396;28;20090;-76
2021/09/29 07:13:29;;;;;;;1.65;0.50;;;16.30;72.60;;;;;;5074175;28;20091;-77
2021/09/29 07:15:55;;;;;;;4.22;0.50;;;16.40;72.50;;;;;;5073888;28;20064;-75
2021/09/29 07:18:20;;;;;;;4.15;0.50;;;16.60;71.00;;;;;;5074017;28;20107;-78
2021/09/29 07:20:46;;;;;;;2.83;0.50;;;16.70;70.80;;;;;;5074232;28;20036;-77
2021/09/29 07:23:12;;;;;;;2.88;0.63;;;16.90;70.60;;;;;;5060218;28;20016;-77
2021/09/29 07:25:38;;;;;;;2.53;0.55;;;17.10;71.00;;;;;;5074034;28;20071;-76
2021/09/29 07:28:05;;;;;;;2.95;0.52;;;17.30;70.50;;;;;;5059911;28;20089;-79
2021/09/29 07:30:31;;;;;;;2.33;0.95;;;17.40;68.70;;;;;;5073864;28;20115;-79
2021/09/29 07:33:02;;;;;;;4.57;0.50;;;17.30;68.20;;;;;;5057041;28;20062;-76
2021/09/29 07:35:28;;;;;;;2.67;0.60;;;17.30;67.40;;;;;;5070115;28;20512;-75
2021/09/29 07:37:54;;;;;;;4.97;0.65;;;17.30;68.00;;;;;;5062903;28;20087;-75
2021/09/29 07:40:19;;;;;;;3.83;1.10;;;17.40;68.20;;;;;;5071618;28;20064;-75
2021/09/29 07:42:45;;;;;;;2.80;0.40;;;17.60;68.00;;;;;;5071547;28;20480;-74
2021/09/29 07:45:11;;;;;;;4.18;0.60;;;17.60;67.10;;;;;;5070854;28;20101;-75
2021/09/29 07:47:37;;;;;;;3.45;0.70;;;17.60;67.50;;;;;;5071419;28;20078;-76
2021/09/29 07:50:05;;;;;;;2.10;0.60;;;17.80;67.00;;;;;;5070812;28;20036;-69
2021/09/29 07:52:31;;;;;;;4.57;0.90;;;17.90;66.30;;;;;;5051834;28;20028;-74
2021/09/29 07:54:57;;;;;;;4.07;0.60;;;17.90;66.80;;;;;;5071522;28;20063;-76
2021/09/29 07:57:22;;;;;;;3.30;0.63;;;18.00;66.20;;;;;;5052977;28;20029;-76
2021/09/29 07:59:48;;;;;;;2.65;0.45;;;18.10;66.10;;;;;;5071419;28;20520;-75
2021/09/29 08:02:14;;;;;;;4.63;0.82;;;18.20;65.00;;;;;;5071968;28;20021;-76
2021/09/29 08:04:39;;;;;;;3.85;0.70;;;18.30;65.00;;;;;;5071328;28;20105;-76
2021/09/29 08:07:05;;;;;;;2.85;0.70;;;18.20;63.70;;;;;;5070485;28;20020;-74
2021/09/29 08:09:31;;;;;;;5.07;0.77;;;18.40;64.00;;;;;;5072145;28;20071;-75
2021/09/29 08:11:57;;;;;;;4.63;0.70;;;18.40;63.80;;;;;;5071752;28;20028;-76
2021/09/29 08:14:23;;;;;;;6.10;0.73;;;18.50;63.30;;;;;;5072108;28;20099;-76
2021/09/29 08:16:49;;;;;;;2.95;0.68;;;18.70;63.50;;;;;;5071805;28;20032;-79
2021/09/29 08:19:15;;;;;;;4.47;0.60;;;18.90;63.30;;;;;;5070529;28;20028;-76
2021/09/29 08:21:44;;;;;;;3.83;0.73;;;19.10;63.30;;;;;;5071197;28;20328;-75
2021/09/29 08:24:14;;;;;;;3.83;0.68;;;19.30;63.00;;;;;;5070666;28;20036;-76
2021/09/29 08:39:52;;;;;;;3.15;0.60;;;20.40;59.70;;;;;;5072320;28;20464;-74
2021/09/29 08:44:54;;;;;;;2.35;0.68;;;20.70;58.70;;;;;;5071820;28;20064;-76
2021/09/29 09:16:45;;;;;;;3.03;0.60;;;22.40;52.40;;;;;;5071857;28;20032;-73
2021/09/29 09:19:14;;;;;;;4.55;0.80;;;22.40;51.30;;;;;;5057863;28;20119;-73
2021/09/29 09:21:56;;;;;;;4.45;0.80;;;22.50;51.90;;;;;;5054624;28;20116;-73
2021/09/29 09:24:24;;;;;;;5.50;0.70;;;22.50;53.70;;;;;;5057385;28;20030;-72
2021/09/29 09:27:14;;;;;;;2.88;0.70;;;22.70;52.40;;;;;;5056470;28;20056;-73
2021/09/29 09:29:49;;;;;;;5.18;0.70;;;22.80;53.00;;;;;;5072375;28;20100;-73
2021/09/29 09:32:18;;;;;;;3.85;0.88;;;22.90;52.40;;;;;;5054415;28;20031;-73
2021/09/29 09:34:43;;;;;;;3.85;0.60;;;23.10;50.80;;;;;;5068264;28;20509;-73
2021/09/29 09:37:15;;;;;;;3.80;0.80;;;23.30;50.80;;;;;;5071520;28;20091;-73
2021/09/29 09:39:42;;;;;;;5.05;0.93;;;23.40;50.50;;;;;;5071665;28;20037;-73
2021/09/29 09:42:10;;;;;;;4.15;0.80;;;23.40;48.90;;;;;;5053548;28;20033;-75
2021/09/29 09:44:41;;;;;;;5.05;0.93;;;23.60;49.20;;;;;;5059782;28;20135;-73
2021/09/29 09:47:10;;;;;;;2.97;0.70;;;23.80;49.70;;;;;;5066154;28;20031;-76
2021/09/29 09:49:54;;;;;;;4.35;0.60;;;24.10;48.00;;;;;;5068980;28;20041;-76
2021/09/29 09:52:41;;;;;;;3.88;0.60;;;24.20;48.70;;;;;;5070259;28;20500;-71
2021/09/29 09:55:14;;;;;;;1.95;0.82;;;24.20;47.90;;;;;;5071770;28;20059;-71
2021/09/29 09:57:41;;;;;;;4.15;0.93;;;24.40;46.50;;;;;;5074756;28;20550;-73
2021/09/29 10:00:14;;;;;;;3.45;0.80;;;24.60;46.80;;;;;;5074606;28;20415;-72
2021/09/29 10:02:44;;;;;;;3.80;0.80;;;24.40;45.90;;;;;;5071615;28;20028;-71
2021/09/29 10:05:13;;;;;;;4.28;0.80;;;24.40;46.10;;;;;;5075349;28;20449;-67
2021/09/29 10:07:39;;;;;;;4.00;0.70;;;24.80;46.90;;;;;;5076068;28;20032;-76
2021/09/29 10:27:17;;;;;;;1.75;0.68;;;23.30;41.80;;;;;;4993764;28;20491;-76
2021/09/29 10:29:58;;;;;;;2.92;0.60;;;22.40;43.80;;;;;;4990264;28;20086;-75
2021/09/29 10:32:26;;;;;;;4.93;0.80;;;21.80;45.20;;;;;;4993430;28;20062;-74
2021/09/29 10:43:05;;;;;;;2.05;0.60;;;25.60;44.70;;;;;;5000808;28;20484;-73
2021/09/29 10:49:04;;;;;;;4.05;0.82;;;26.00;43.30;;;;;;4970412;28;20043;-71
2021/09/29 11:08:48;;;;;;;1.98;0.60;;;24.70;40.50;;;;;;5036445;28;20033;-71
2021/09/29 11:30:26;;;;;;;2.50;0.63;;;23.80;40.20;;;;;;5057790;28;20366;-72
2021/09/29 12:12:25;;;;;;;2.60;0.65;;;25.10;39.50;;;;;;4957788;28;20476;-74
2021/09/29 12:15:01;;;;;;;2.25;0.60;;;27.80;39.00;;;;;;5040737;28;20037;-75
2021/09/29 12:17:31;;;;;;;2.65;0.60;;;31.10;34.20;;;;;;5071860;28;20111;-74
2021/09/29 12:20:00;;;;;;;1.10;0.50;;;33.50;28.90;;;;;;5072267;28;20131;-73
2021/09/29 12:22:29;;;;;;;1.27;0.73;;;35.10;27.70;;;;;;5059236;28;20393;-73
2021/09/29 12:27:33;;;;;;;1.20;0.70;;;37.50;23.20;;;;;;5072631;28;20122;-73
2021/09/29 12:30:11;;;;;;;1.83;0.80;;;38.30;20.30;;;;;;5072899;28;20174;-73
2021/09/29 12:32:55;;;;;;;1.55;0.90;;;38.80;18.90;;;;;;5073222;28;20056;-73
2021/09/29 12:35:44;;;;;;;1.65;1.10;;;39.70;21.10;;;;;;5073143;28;20032;-73
2021/09/29 12:38:11;;;;;;;2.60;1.30;;;40.30;18.00;;;;;;5058822;28;20493;-73
2021/09/29 12:40:39;;;;;;;1.45;0.90;;;40.60;18.30;;;;;;5072590;28;20020;-73
2021/09/29 12:43:14;;;;;;;2.92;0.80;;;40.30;17.60;;;;;;5072166;28;20024;-73
2021/09/29 12:45:43;;;;;;;2.05;0.50;;;36.90;17.20;;;;;;5072657;28;20012;-75
2021/09/29 12:48:11;;;;;;;2.78;0.75;;;32.80;19.90;;;;;;5056543;28;20021;-72
2021/09/29 12:50:50;;;;;;;2.78;0.68;;;30.00;22.70;;;;;;5068653;28;20021;-73
2021/09/29 12:56:30;;;;;;;2.30;0.50;;;26.60;26.70;;;;;;5072253;28;20107;-74
2021/09/29 12:58:36;;;;;;;1.50;0.60;;;25.50;28.30;;;;;;5063743;28;20048;-74
2021/09/29 13:01:02;;;;;;;2.15;0.80;;;25.00;29.60;;;;;;5072104;28;20073;-74
2021/09/29 13:03:28;;;;;;;2.72;0.63;;;24.70;30.80;;;;;;5072178;28;20115;-74
2021/09/29 13:05:57;;;;;;;8.52;0.90;;;24.20;30.50;;;;;;5072320;28;20027;-74
2021/09/29 13:08:23;;;;;;;1.58;0.65;;;23.60;31.80;;;;;;5070674;28;20370;-74
2021/09/29 13:10:49;;;;;;;2.00;0.50;;;23.10;32.90;;;;;;5071561;28;20154;-74
2021/09/29 13:13:15;;;;;;;4.65;0.80;;;22.70;34.00;;;;;;5071828;28;20082;-75
2021/09/29 13:15:45;;;;;;;2.83;0.80;;;22.70;34.60;;;;;;5072142;28;20027;-74
2021/09/29 13:18:17;;;;;;;3.63;0.77;;;22.90;36.40;;;;;;5056068;28;20086;-74
2021/09/29 13:20:46;;;;;;;3.28;0.90;;;23.80;33.90;;;;;;5072334;28;20477;-75
2021/09/29 13:37:08;;;;;;;2.22;0.65;;;24.20;33.20;;;;;;4936651;29;20135;-74
2021/09/29 13:39:35;;;;;;;1.95;0.60;;;23.90;33.90;;;;;;4935518;29;20078;-74
2021/09/29 13:42:03;;;;;;;2.33;0.63;;;23.80;34.30;;;;;;4933310;29;20051;-75
2021/09/29 13:44:28;;;;;;;2.45;0.55;;;23.60;34.80;;;;;;4937034;29;20544;-75
2021/09/29 13:46:54;;;;;;;2.10;0.52;;;23.40;34.50;;;;;;4936855;29;20115;-74
2021/09/29 13:49:22;;;;;;;2.92;0.80;;;23.20;35.00;;;;;;4936511;29;20506;-74
2021/09/29 13:51:50;;;;;;;2.17;0.60;;;23.00;35.70;;;;;;4936572;29;20023;-74
2021/09/29 13:54:19;;;;;;;1.60;0.60;;;22.90;35.90;;;;;;4932802;29;20070;-74
2021/09/29 13:57:00;;;;;;;1.67;0.60;;;22.70;35.90;;;;;;4950765;28;20432;-74
2021/09/29 14:30:17;;;;;;;3.78;0.73;;;21.20;36.70;;;;;;4987104;28;20081;-74
2021/09/29 14:32:42;;;;;;;1.63;0.50;;;21.10;36.70;;;;;;4983422;28;20129;-74
2021/09/29 14:35:08;;;;;;;1.02;0.40;;;21.00;37.00;;;;;;4978664;28;20059;-73
2021/09/29 14:37:34;;;;;;;1.42;0.35;;;20.90;37.30;;;;;;4978736;28;20534;-74
2021/09/29 14:40:00;;;;;;;2.85;0.38;;;20.90;37.50;;;;;;4978274;28;20054;-74
2021/09/29 14:42:26;;;;;;;3.47;0.50;;;20.80;37.70;;;;;;4978570;28;20026;-74
2021/09/29 14:44:51;;;;;;;9.98;4.50;;;20.80;37.50;;;;;;4977798;28;20039;-74
2021/09/29 14:47:17;;;;;;;3.58;1.17;;;20.60;37.50;;;;;;5046576;28;20041;-74
2021/09/29 14:49:44;;;;;;;5.18;0.90;;;20.60;38.20;;;;;;5074816;28;20481;-74
2021/09/29 14:52:12;;;;;;;1.98;0.70;;;20.70;38.20;;;;;;5074483;28;20031;-73
2021/09/29 14:54:38;;;;;;;3.40;0.70;;;20.60;38.10;;;;;;5074756;28;20027;-74
2021/09/29 14:57:10;;;;;;;1.42;0.55;;;20.50;38.20;;;;;;5074689;28;20053;-74
2021/09/29 14:59:37;;;;;;;1.15;0.40;;;20.60;38.70;;;;;;5075689;28;20442;-74
2021/09/29 15:02:03;;;;;;;1.88;0.40;;;20.50;37.90;;;;;;5074382;28;20019;-74
2021/09/29 15:04:28;;;;;;;2.50;0.57;;;20.40;37.90;;;;;;5074464;28;20032;-73
2021/09/29 15:06:54;;;;;;;3.13;0.55;;;20.30;37.70;;;;;;5074096;28;20376;-73
2021/09/29 15:09:19;;;;;;;2.72;0.80;;;20.10;37.80;;;;;;5074446;28;20032;-74
2021/09/29 15:11:45;;;;;;;3.22;0.60;;;20.00;38.30;;;;;;5074689;28;20453;-74
2021/09/29 15:14:14;;;;;;;1.75;0.43;;;20.00;38.00;;;;;;5061095;28;20033;-74
2021/09/29 15:16:47;;;;;;;2.05;0.50;;;19.90;38.30;;;;;;5073848;28;20465;-74
2021/09/29 15:48:48;;;;;;;1.50;0.47;;;19.50;39.80;;;;;;5014880;28;20040;-74
2021/09/29 15:51:20;;;;;;;1.73;0.40;;;19.40;39.60;;;;;;4996786;28;20124;-74
2021/09/29 15:59:37;;;;;;;1.35;0.52;;;19.40;39.90;;;;;;5015548;28;20087;-73
2021/09/29 16:02:38;;;;;;;1.98;0.32;;;19.40;40.20;;;;;;5015265;28;20121;-75
2021/09/29 16:05:09;;;;;;;1.35;0.40;;;19.30;40.30;;;;;;5009207;28;20100;-74
2021/09/29 16:23:42;;;;;;;2.13;0.47;;;18.80;41.60;;;;;;4978630;28;20058;-74
2021/09/29 16:31:30;;;;;;;2.47;0.50;;;18.90;44.20;;;;;;4986157;28;20089;-75
2021/09/29 16:34:02;;;;;;;1.77;0.50;;;19.00;43.20;;;;;;4976431;28;20412;-73
2021/09/29 16:36:27;;;;;;;2.15;0.38;;;19.00;42.90;;;;;;4988083;28;20039;-70
2021/09/29 16:38:53;;;;;;;3.25;0.70;;;19.00;42.70;;;;;;4988671;28;20576;-69
2021/09/29 16:41:20;;;;;;;2.30;0.80;;;19.00;42.70;;;;;;4983745;28;20544;-69
2021/09/29 16:43:46;;;;;;;2.67;0.40;;;19.00;43.10;;;;;;4987443;28;20030;-69
2021/09/29 16:46:16;;;;;;;4.03;0.45;;;19.00;43.00;;;;;;4985806;28;20046;-73
2021/09/29 16:48:42;;;;;;;2.60;0.85;;;18.90;43.00;;;;;;4987504;28;20419;-72
2021/09/29 16:53:49;;;;;;;4.00;0.50;;;18.80;43.10;;;;;;4980417;28;20035;-72
2021/09/29 16:56:15;;;;;;;1.85;0.60;;;18.80;43.00;;;;;;5046739;28;20037;-73
2021/09/29 17:01:09;;;;;;;3.85;0.70;;;18.60;42.70;;;;;;5077656;28;20062;-71
2021/09/29 17:03:37;;;;;;;3.50;0.57;;;18.50;42.80;;;;;;5072010;28;20033;-75
2021/09/29 17:06:03;;;;;;;1.45;0.50;;;18.50;42.90;;;;;;5079627;28;20040;-72
2021/09/29 17:08:30;;;;;;;2.58;0.60;;;18.40;42.80;;;;;;5073659;28;20036;-74
2021/09/29 17:10:56;;;;;;;2.20;0.70;;;18.40;42.70;;;;;;5072139;28;20027;-73